createdAt,value
2019-02-16T00:01:37.943Z,7.10
2019-02-16T00:04:15.614Z,7.23
2019-02-16T00:06:50.660Z,7.50
2019-02-16T00:09:32.351Z,8.20
2019-02-16T00:12:07.138Z,7.40
2019-02-16T00:14:38.499Z,7.85
2019-02-16T00:17:10.960Z,7.57
2019-02-16T00:19:43.430Z,7.20
2019-02-16T00:22:33.041Z,7.60
2019-02-16T00:25:07.343Z,7.10
2019-02-16T00:27:42.992Z,7.60
2019-02-16T00:30:22.088Z,7.10
2019-02-16T00:32:55.987Z,7.40
2019-02-16T00:35:30.567Z,7.77
2019-02-16T00:38:06.388Z,7.40
2019-02-16T00:40:43.529Z,7.43
2019-02-16T00:43:24.241Z,8.40
2019-02-16T00:46:09.969Z,8.03
2019-02-16T00:48:40.765Z,7.57
2019-02-16T00:51:20.403Z,7.30
2019-02-16T00:53:47.453Z,7.90
2019-02-16T00:56:24.824Z,8.33
2019-02-16T00:59:02.394Z,7.47
2019-02-16T01:01:39.811Z,8.57
2019-02-16T01:04:20.905Z,7.30
2019-02-16T01:07:14.428Z,8.20
2019-02-16T01:10:03.638Z,7.60
2019-02-16T01:13:02.849Z,9.25
2019-02-16T01:15:50.002Z,8.90
2019-02-16T01:18:54.997Z,8.00
2019-02-16T01:21:51.629Z,7.93
2019-02-16T01:24:29.027Z,7.83
2019-02-16T01:27:19.018Z,7.77
2019-02-16T01:29:55.907Z,8.00
2019-02-16T01:32:55.855Z,7.73
2019-02-16T01:35:44.251Z,7.83
2019-02-16T01:42:19.914Z,7.87
2019-02-16T01:45:06.661Z,8.10
2019-02-16T01:48:17.304Z,7.80
2019-02-16T01:54:14.627Z,8.37
2019-02-16T01:57:01.243Z,8.60
2019-02-16T01:59:55.885Z,7.83
2019-02-16T02:02:59.747Z,8.40
2019-02-16T02:05:54.421Z,8.23
2019-02-16T02:08:55.794Z,7.77
2019-02-16T02:11:36.299Z,8.33
2019-02-16T02:17:29.855Z,8.27
2019-02-16T02:23:22.658Z,7.90
2019-02-16T02:26:09.663Z,8.80
2019-02-16T02:29:19.048Z,8.33
2019-02-16T02:32:22.442Z,7.73
2019-02-16T02:38:37.393Z,9.50
2019-02-16T02:44:43.536Z,8.70
2019-02-16T02:47:33.061Z,8.30
2019-02-16T02:50:54.562Z,8.00
2019-02-16T02:53:53.354Z,8.13
2019-02-16T02:57:20.487Z,8.87
2019-02-16T03:00:34.081Z,8.37
2019-02-16T03:03:20.744Z,7.90
2019-02-16T03:06:44.218Z,7.83
2019-02-16T03:09:35.900Z,7.53
2019-02-16T03:12:10.559Z,8.67
2019-02-16T03:14:54.065Z,8.03
2019-02-16T03:17:36.704Z,8.60
2019-02-16T03:20:27.960Z,7.90
2019-02-16T03:23:42.804Z,8.40
2019-02-16T03:26:56.068Z,8.90
2019-02-16T03:30:31.125Z,8.20
2019-02-16T03:33:51.374Z,7.87
2019-02-16T03:37:26.467Z,8.47
2019-02-16T03:40:02.860Z,8.23
2019-02-16T03:42:45.311Z,8.30
2019-02-16T03:46:00.744Z,8.23
2019-02-16T03:52:15.714Z,8.63
2019-02-16T03:55:03.214Z,8.77
2019-02-16T03:57:55.157Z,9.30
2019-02-16T04:00:50.547Z,9.03
2019-02-16T04:03:39.040Z,8.40
2019-02-16T04:06:37.804Z,8.27
2019-02-16T04:09:33.459Z,7.90
2019-02-16T04:12:08.468Z,7.90
2019-02-16T04:15:21.371Z,8.67
2019-02-16T04:25:25.068Z,8.20
2019-02-16T04:31:27.041Z,8.20
2019-02-16T04:34:52.012Z,8.53
2019-02-16T04:37:32.618Z,7.93
2019-02-16T04:40:44.494Z,9.83
2019-02-16T04:46:38.775Z,8.53
2019-02-16T04:49:39.112Z,8.17
2019-02-16T04:55:34.857Z,9.33
2019-02-16T04:58:34.195Z,8.80
2019-02-16T05:01:22.684Z,8.87
2019-02-16T05:04:32.601Z,8.50
2019-02-16T05:08:02.408Z,8.27
2019-02-16T05:11:11.222Z,9.07
2019-02-16T05:13:59.346Z,8.63
2019-02-16T05:17:04.521Z,8.63
2019-02-16T05:30:24.375Z,8.80
2019-02-16T05:33:34.548Z,9.87
2019-02-16T05:36:23.163Z,9.00
2019-02-16T05:42:20.139Z,8.70
2019-02-16T05:45:08.688Z,9.30
2019-02-16T05:51:15.358Z,9.33
2019-02-16T05:54:26.130Z,9.73
2019-02-16T05:56:43.999Z,9.50
2019-02-16T05:59:54.066Z,10.30
2019-02-16T06:05:40.988Z,8.73
2019-02-16T06:08:12.380Z,9.30
2019-02-16T06:13:43.090Z,9.57
2019-02-16T06:16:19.248Z,9.20
2019-02-16T06:19:28.888Z,10.80
2019-02-16T06:23:03.891Z,10.20
2019-02-16T06:25:54.381Z,10.27
2019-02-16T06:29:02.136Z,10.20
2019-02-16T06:32:09.335Z,10.10
2019-02-16T06:37:44.687Z,10.33
2019-02-16T06:44:26.952Z,10.40
2019-02-16T06:48:02.218Z,9.47
2019-02-16T06:51:24.839Z,12.35
2019-02-16T06:57:00.403Z,11.27
2019-02-16T06:59:50.258Z,10.13
2019-02-16T07:02:47.737Z,11.93
2019-02-16T07:09:28.829Z,10.77
2019-02-16T07:12:13.511Z,10.70
2019-02-16T07:15:16.353Z,10.20
2019-02-16T07:18:40.049Z,10.63
2019-02-16T07:21:41.006Z,9.87
2019-02-16T07:24:59.960Z,11.40
2019-02-16T07:28:07.265Z,10.60
2019-02-16T07:31:09.231Z,11.10
2019-02-16T07:37:18.299Z,11.03
2019-02-16T07:43:36.968Z,11.27
2019-02-16T07:46:34.499Z,11.60
2019-02-16T07:50:02.881Z,11.87
2019-02-16T07:53:20.241Z,10.50
2019-02-16T07:56:30.716Z,13.50
2019-02-16T07:59:46.013Z,14.40
2019-02-16T08:06:17.843Z,12.17
2019-02-16T08:09:37.518Z,12.00
2019-02-16T08:16:08.481Z,11.83
2019-02-16T08:19:15.581Z,12.03
2019-02-16T08:24:16.612Z,11.47
2019-02-16T08:29:24.202Z,12.90
2019-02-16T08:32:47.308Z,12.20
2019-02-16T08:36:10.489Z,12.63
2019-02-16T08:39:33.404Z,12.40
2019-02-16T08:43:29.636Z,12.53
2019-02-16T08:46:55.744Z,13.07
2019-02-16T08:50:35.994Z,13.20
2019-02-16T09:00:44.800Z,13.17
2019-02-16T09:04:35.817Z,13.30
2019-02-16T09:07:57.805Z,13.53
2019-02-16T09:11:23.118Z,14.17
2019-02-16T09:19:24.357Z,13.93
2019-02-16T09:34:27.937Z,14.93
2019-02-16T09:38:15.008Z,15.80
2019-02-16T09:44:38.123Z,15.32
2019-02-16T09:52:07.594Z,14.68
2019-02-16T09:59:01.221Z,15.70
2019-02-16T10:02:43.396Z,15.50
2019-02-16T10:09:46.019Z,15.28
2019-02-16T10:12:52.916Z,16.23
2019-02-16T10:24:24.608Z,16.07
2019-02-16T10:27:49.863Z,15.28
2019-02-16T10:31:15.955Z,15.40
2019-02-16T10:34:45.700Z,15.60
2019-02-16T10:46:17.813Z,15.93
2019-02-16T11:35:20.427Z,18.70
2019-02-16T11:38:40.219Z,18.73
2019-02-16T11:41:52.677Z,19.67
2019-02-16T11:44:49.108Z,17.98
2019-02-16T11:47:41.989Z,19.10
2019-02-16T11:51:03.803Z,17.82
2019-02-16T11:54:45.218Z,17.87
2019-02-16T11:58:17.567Z,18.17
2019-02-16T12:01:30.436Z,18.40
2019-02-16T12:04:35.567Z,17.57
2019-02-16T12:07:57.722Z,17.37
2019-02-16T12:11:10.777Z,17.30
2019-02-16T12:14:40.981Z,17.90
2019-02-16T12:17:39.555Z,17.55
2019-02-16T12:20:33.468Z,18.00
2019-02-16T12:23:22.634Z,17.52
2019-02-16T12:26:54.701Z,17.47
2019-02-16T12:30:05.435Z,19.85
2019-02-16T12:32:59.894Z,18.97
2019-02-16T12:35:50.483Z,17.42
2019-02-16T12:38:46.155Z,18.25
2019-02-16T12:42:27.376Z,17.70
2019-02-16T12:45:36.307Z,17.50
2019-02-16T12:52:12.515Z,18.77
2019-02-16T12:55:14.599Z,18.47
2019-02-16T12:58:38.923Z,18.10
2019-02-16T13:01:32.985Z,20.43
2019-02-16T13:04:38.386Z,17.45
2019-02-16T13:11:25.573Z,18.27
2019-02-16T13:14:33.641Z,18.00
2019-02-16T13:17:32.079Z,18.60
2019-02-16T13:20:25.653Z,18.07
2019-02-16T13:24:06.855Z,17.90
2019-02-16T13:27:11.341Z,17.50
2019-02-16T13:30:00.784Z,17.97
2019-02-16T13:32:54.314Z,18.60
2019-02-16T13:36:04.803Z,18.60
2019-02-16T13:39:10.180Z,18.47
2019-02-16T13:41:59.749Z,17.53
2019-02-16T13:44:51.831Z,19.10
2019-02-16T13:47:37.467Z,19.47
2019-02-16T13:50:29.512Z,19.57
2019-02-16T13:53:30.109Z,18.43
2019-02-16T13:56:29.862Z,18.90
2019-02-16T13:59:23.323Z,18.53
2019-02-16T14:02:35.625Z,19.27
2019-02-16T14:05:50.643Z,19.37
2019-02-16T14:08:41.130Z,19.20
2019-02-16T14:11:32.061Z,19.10
2019-02-16T14:14:35.485Z,18.10
2019-02-16T14:17:37.989Z,18.37
2019-02-16T14:20:23.018Z,17.40
2019-02-16T14:23:19.731Z,21.68
2019-02-16T14:26:06.849Z,18.63
2019-02-16T14:28:53.638Z,18.87
2019-02-16T14:31:56.103Z,18.70
2019-02-16T14:37:39.856Z,20.10
2019-02-16T14:40:23.007Z,19.07
2019-02-16T14:43:01.689Z,20.03
2019-02-16T14:45:44.989Z,20.57
2019-02-16T14:48:26.912Z,20.57
2019-02-16T14:51:17.454Z,20.23
2019-02-16T14:53:50.600Z,20.17
2019-02-16T14:56:38.942Z,20.23
2019-02-16T14:59:18.668Z,20.13
2019-02-16T15:02:14.686Z,20.37
2019-02-16T15:04:56.681Z,20.63
2019-02-16T15:07:29.836Z,19.73
2019-02-16T15:10:32.081Z,20.40
2019-02-16T15:13:12.486Z,20.50
2019-02-16T15:15:51.727Z,20.63
2019-02-16T15:18:52.499Z,21.23
2019-02-16T15:21:32.457Z,21.47
2019-02-16T15:24:07.349Z,21.33
2019-02-16T15:26:43.203Z,21.27
2019-02-16T15:29:15.704Z,21.63
2019-02-16T15:31:51.161Z,24.20
2019-02-16T15:34:54.938Z,21.47
2019-02-16T15:37:25.075Z,22.17
2019-02-16T15:40:25.332Z,22.00
2019-02-16T15:42:58.273Z,21.37
2019-02-16T15:45:36.140Z,24.23
2019-02-16T15:48:13.377Z,22.83
2019-02-16T15:51:02.585Z,21.30
2019-02-16T15:53:57.854Z,24.87
2019-02-16T15:56:37.541Z,22.67
2019-02-16T15:59:34.837Z,22.73
2019-02-16T16:02:00.974Z,22.30
2019-02-16T16:04:40.865Z,21.67
2019-02-16T16:07:17.637Z,21.77
2019-02-16T16:10:33.579Z,21.90
2019-02-16T16:13:21.688Z,21.63
2019-02-16T16:16:31.217Z,21.87
2019-02-16T16:19:27.763Z,22.70
2019-02-16T16:22:22.633Z,21.17
2019-02-16T16:25:27.876Z,22.67
2019-02-16T16:28:34.108Z,22.50
2019-02-16T16:31:43.781Z,22.27
2019-02-16T16:34:44.809Z,21.97
2019-02-16T16:37:54.661Z,23.37
2019-02-16T16:41:00.926Z,22.17
2019-02-16T16:43:55.362Z,22.00
2019-02-16T16:47:01.724Z,23.77
2019-02-16T16:50:16.820Z,22.97
2019-02-16T16:53:01.171Z,22.43
2019-02-16T16:56:28.394Z,23.50
2019-02-16T16:59:18.117Z,23.00
2019-02-16T17:02:00.234Z,23.80
2019-02-16T17:04:58.832Z,26.83
2019-02-16T17:07:39.133Z,27.50
2019-02-16T17:13:56.305Z,23.33
2019-02-16T17:16:50.212Z,23.37
2019-02-16T17:19:57.224Z,23.87
2019-02-16T17:22:54.873Z,22.57
2019-02-16T17:25:53.608Z,23.43
2019-02-16T17:29:00.527Z,23.30
2019-02-16T17:32:03.241Z,23.17
2019-02-16T17:34:52.394Z,23.10
2019-02-16T17:37:43.595Z,23.40
2019-02-16T17:40:38.226Z,24.03
2019-02-16T17:43:29.447Z,24.03
2019-02-16T17:46:39.676Z,21.63
2019-02-16T17:49:44.509Z,23.93
2019-02-16T17:52:37.419Z,23.63
2019-02-16T17:55:37.200Z,23.87
2019-02-16T17:58:42.467Z,24.53
2019-02-16T18:01:27.394Z,23.40
2019-02-16T18:04:15.591Z,27.43
2019-02-16T18:07:13.450Z,23.77
2019-02-16T18:09:58.061Z,24.83
2019-02-16T18:12:50.055Z,24.53
2019-02-16T18:15:31.653Z,24.03
2019-02-16T18:18:21.504Z,23.60
2019-02-16T18:21:08.383Z,24.20
2019-02-16T18:24:11.663Z,24.63
2019-02-16T18:27:11.073Z,24.80
2019-02-16T18:29:56.525Z,23.00
2019-02-16T18:32:50.169Z,23.07
2019-02-16T18:36:04.495Z,22.87
2019-02-16T18:39:10.316Z,23.33
2019-02-16T18:41:59.820Z,22.80
2019-02-16T18:44:46.661Z,27.70
2019-02-16T18:47:42.166Z,22.73
2019-02-16T18:50:31.839Z,23.30
2019-02-16T18:53:15.729Z,22.43
2019-02-16T18:59:49.580Z,27.67
2019-02-16T19:02:47.368Z,24.53
2019-02-16T19:05:40.554Z,22.73
2019-02-16T19:08:44.776Z,22.67
2019-02-16T19:11:38.292Z,23.67
2019-02-16T19:14:27.217Z,22.00
2019-02-16T19:17:19.578Z,23.33
2019-02-16T19:20:40.176Z,23.23
2019-02-16T19:23:41.145Z,23.80
2019-02-16T19:26:55.094Z,23.20
2019-02-16T19:30:19.082Z,23.97
2019-02-16T19:33:21.069Z,22.00
2019-02-16T19:36:19.387Z,22.37
2019-02-16T19:39:34.045Z,21.50
2019-02-16T19:42:19.836Z,22.23
2019-02-16T19:45:39.887Z,21.07
2019-02-16T19:48:51.888Z,20.93
2019-02-16T19:51:59.245Z,21.20
2019-02-16T19:55:08.629Z,22.27
2019-02-16T19:58:02.180Z,23.60
2019-02-16T20:01:18.587Z,21.80
2019-02-16T20:04:25.536Z,20.83
2019-02-16T20:07:34.571Z,23.37
2019-02-16T20:16:50.769Z,23.13
2019-02-16T20:19:56.398Z,23.30
2019-02-16T20:22:45.474Z,23.17
2019-02-16T20:26:44.068Z,21.83
2019-02-16T20:29:00.354Z,22.87
2019-02-16T20:32:03.859Z,23.80
2019-02-16T20:34:56.047Z,24.80
2019-02-16T20:38:33.664Z,24.43
2019-02-16T20:41:47.075Z,22.97
2019-02-16T20:47:34.851Z,21.73
2019-02-16T20:50:38.309Z,22.37
2019-02-16T20:53:38.426Z,21.67
2019-02-16T20:56:27.076Z,29.50
2019-02-16T20:59:48.205Z,26.03
2019-02-16T21:02:40.375Z,24.00
2019-02-16T21:05:43.359Z,24.17
2019-02-16T21:09:00.660Z,24.63
2019-02-16T21:12:14.358Z,31.17
2019-02-16T21:14:58.339Z,25.47
2019-02-16T21:17:50.908Z,24.27
2019-02-16T21:21:21.306Z,26.83
2019-02-16T21:24:22.238Z,24.17
2019-02-16T21:27:45.127Z,24.33
2019-02-16T21:37:27.926Z,22.60
2019-02-16T21:43:54.470Z,23.97
2019-02-16T21:47:19.117Z,24.77
2019-02-16T21:50:34.940Z,25.17
2019-02-16T21:54:01.318Z,26.50
2019-02-16T21:57:03.503Z,26.27
2019-02-16T21:59:57.996Z,26.00
2019-02-16T22:03:50.512Z,24.73
2019-02-16T22:10:29.868Z,25.67
2019-02-16T22:16:42.236Z,27.07
2019-02-16T22:19:49.860Z,27.53
2019-02-16T22:22:44.607Z,24.97
2019-02-16T22:26:09.827Z,25.77
2019-02-16T22:32:10.837Z,29.77
2019-02-16T22:35:04.840Z,32.38
2019-02-16T22:38:13.832Z,25.30
2019-02-16T22:40:58.375Z,24.50
2019-02-16T22:43:54.831Z,24.77
2019-02-16T22:46:43.365Z,26.30
2019-02-16T22:49:23.125Z,24.10
2019-02-16T22:52:06.465Z,23.93
2019-02-16T22:54:52.551Z,24.67
2019-02-16T22:57:31.841Z,29.95
2019-02-16T23:00:18.190Z,25.33
2019-02-16T23:03:01.775Z,24.50
2019-02-16T23:05:49.431Z,29.53
2019-02-16T23:08:28.666Z,31.25
2019-02-16T23:11:48.528Z,25.70
2019-02-16T23:14:37.483Z,27.10
2019-02-16T23:17:28.112Z,30.37
2019-02-16T23:20:20.763Z,27.37
2019-02-16T23:22:51.533Z,26.70
2019-02-16T23:25:23.121Z,24.07
2019-02-16T23:29:07.466Z,30.92
2019-02-16T23:31:27.042Z,25.87
2019-02-16T23:37:42.225Z,28.60
2019-02-16T23:40:27.209Z,25.63
2019-02-16T23:42:56.254Z,26.50
2019-02-16T23:46:06.443Z,26.43
2019-02-16T23:49:08.748Z,24.53
2019-02-16T23:55:17.461Z,24.67
2019-02-16T23:58:18.511Z,23.17
